createdAt,value
2024-04-24T00:03:37.396Z,7.1681
2024-04-24T00:13:46.644Z,7.1564
2024-04-24T00:23:56.082Z,7.1547
2024-04-24T00:34:05.452Z,7.1475
2024-04-24T00:44:14.801Z,7.1444
2024-04-24T00:54:24.268Z,7.1303
2024-04-24T01:04:33.956Z,7.1269
2024-04-24T01:14:43.518Z,7.1158
2024-04-24T01:24:53.720Z,7.1153
2024-04-24T01:35:03.371Z,7.1092
2024-04-24T01:45:13.252Z,7.0933
2024-04-24T01:55:22.970Z,7.0867
2024-04-24T02:05:32.932Z,7.0731
2024-04-24T02:15:42.721Z,7.0600
2024-04-24T02:25:52.414Z,7.0419
2024-04-24T02:36:02.303Z,7.0311
2024-04-24T02:46:11.839Z,7.0081
2024-04-24T02:56:21.510Z,6.9922
2024-04-24T03:06:31.053Z,6.9708
2024-04-24T03:16:40.645Z,6.9506
2024-04-24T03:26:50.246Z,6.9317
2024-04-24T03:36:59.828Z,6.9150
2024-04-24T03:47:09.194Z,6.8967
2024-04-24T03:57:18.806Z,6.8811
2024-04-24T04:07:28.235Z,6.8650
2024-04-24T04:17:38.066Z,6.8547
2024-04-24T04:27:47.527Z,6.8394
2024-04-24T04:37:56.945Z,6.8264
2024-04-24T04:48:06.314Z,6.8267
2024-04-24T04:58:15.822Z,6.8117
2024-04-24T05:08:25.070Z,6.8044
2024-04-24T05:18:34.654Z,6.7975
2024-04-24T05:28:46.254Z,6.7992
2024-04-24T05:38:56.921Z,6.7889
2024-04-24T05:49:06.266Z,6.7903
2024-04-24T05:59:15.427Z,6.7919
2024-04-24T06:09:24.554Z,6.7925
2024-04-24T06:19:34.038Z,6.7964
2024-04-24T06:29:43.314Z,6.7978
2024-04-24T06:39:52.637Z,6.8033
2024-04-24T06:50:01.970Z,6.8114
2024-04-24T07:00:10.508Z,6.8236
2024-04-24T07:10:19.329Z,6.8403
2024-04-24T07:20:27.702Z,6.8539
2024-04-24T07:30:35.900Z,6.8700
2024-04-24T07:40:43.940Z,6.8953
2024-04-24T07:50:51.894Z,6.9267
2024-04-24T08:00:59.781Z,6.9567
2024-04-24T08:11:07.810Z,6.9808
2024-04-24T08:21:15.802Z,7.0219
2024-04-24T08:31:22.796Z,7.0625
2024-04-24T08:41:29.587Z,7.0972
2024-04-24T08:51:36.906Z,7.1433
2024-04-24T09:01:43.914Z,7.1867
2024-04-24T09:11:50.473Z,7.2367
2024-04-24T09:21:57.116Z,7.2964
2024-04-24T09:32:03.906Z,7.3497
2024-04-24T09:42:10.971Z,7.4136
2024-04-24T09:52:17.933Z,7.4722
2024-04-24T10:02:25.579Z,7.5303
2024-04-24T10:12:32.968Z,7.5931
2024-04-24T10:22:40.664Z,7.6539
2024-04-24T10:32:49.041Z,7.7142
2024-04-24T10:42:57.561Z,7.7678
2024-04-24T10:53:05.946Z,7.8061
2024-04-24T11:03:14.343Z,7.8447
2024-04-24T11:13:22.493Z,7.8808
2024-04-24T11:23:30.311Z,7.9100
2024-04-24T11:33:38.670Z,7.9331
2024-04-24T11:43:46.827Z,7.9581
2024-04-24T11:53:54.547Z,7.9786
2024-04-24T12:04:02.500Z,7.9989
2024-04-24T12:14:09.967Z,8.0203
2024-04-24T12:24:17.880Z,8.0414
2024-04-24T12:34:25.964Z,8.0669
2024-04-24T12:44:33.982Z,8.0928
2024-04-24T12:54:42.258Z,8.1183
2024-04-24T13:04:50.335Z,8.1428
2024-04-24T13:14:58.180Z,8.1622
2024-04-24T13:25:07.254Z,8.1747
2024-04-24T13:35:15.359Z,8.1958
2024-04-24T13:45:23.256Z,8.2133
2024-04-24T13:55:30.972Z,8.2403
2024-04-24T14:05:39.213Z,8.2606
2024-04-24T14:15:47.324Z,8.2867
2024-04-24T14:25:55.843Z,8.3042
2024-04-24T14:36:04.148Z,8.3206
2024-04-24T14:46:12.199Z,8.3314
2024-04-24T14:56:20.223Z,8.3533
2024-04-24T15:06:28.457Z,8.3614
2024-04-24T15:16:36.780Z,8.3742
2024-04-24T15:26:44.900Z,8.3822
2024-04-24T15:36:52.945Z,8.4006
2024-04-24T15:47:01.063Z,8.4108
2024-04-24T15:57:09.359Z,8.4214
2024-04-24T16:07:22.513Z,8.4353
2024-04-24T16:17:30.606Z,8.4425
2024-04-24T16:27:38.952Z,8.4522
2024-04-24T16:37:47.814Z,8.4536
2024-04-24T16:47:56.580Z,8.4600
2024-04-24T16:58:05.182Z,8.4608
2024-04-24T17:08:13.772Z,8.4569
2024-04-24T17:18:23.440Z,8.4528
2024-04-24T17:28:32.329Z,8.4472
2024-04-24T17:38:41.352Z,8.4392
2024-04-24T17:48:50.169Z,8.4306
2024-04-24T17:58:58.967Z,8.4239
2024-04-24T18:09:07.877Z,8.4128
2024-04-24T18:19:17.193Z,8.3992
2024-04-24T18:29:26.183Z,8.3908
2024-04-24T18:39:35.339Z,8.3700
2024-04-24T18:49:44.600Z,8.3539
2024-04-24T18:59:53.673Z,8.3375
2024-04-24T19:10:02.885Z,8.3147
2024-04-24T19:20:12.192Z,8.3033
2024-04-24T19:30:21.401Z,8.2878
2024-04-24T19:40:30.675Z,8.2539
2024-04-24T19:50:39.771Z,8.2428
2024-04-24T20:00:49.207Z,8.2303
2024-04-24T20:10:58.417Z,8.2053
2024-04-24T20:21:07.759Z,8.1817
2024-04-24T20:31:17.051Z,8.1569
2024-04-24T20:41:26.163Z,8.1461
2024-04-24T20:51:35.495Z,8.1239
2024-04-24T21:01:44.563Z,8.0978
2024-04-24T21:11:53.882Z,8.0844
2024-04-24T21:22:03.119Z,8.0644
2024-04-24T21:32:12.414Z,8.0464
2024-04-24T21:42:21.540Z,8.0281
2024-04-24T21:52:30.699Z,8.0047
2024-04-24T22:02:40.449Z,7.9856
2024-04-24T22:12:49.834Z,7.9736
2024-04-24T22:22:59.147Z,7.9422
2024-04-24T22:33:08.277Z,7.9222
2024-04-24T22:43:17.553Z,7.9028
2024-04-24T22:53:26.711Z,7.8828
2024-04-24T23:03:36.129Z,7.8681
2024-04-24T23:13:45.571Z,7.8497
2024-04-24T23:23:54.915Z,7.8339
2024-04-24T23:34:04.174Z,7.8189
2024-04-24T23:44:13.546Z,7.8031
2024-04-24T23:54:23.084Z,7.7861
